Time;durP1;ratioP1;P1;durP2;ratioP2;P2;SDS_P1;SDS_P2;PMS_P1;PMS_P2;Temp;Humidity;BMP_temperature;BMP_pressure;BME280_temperature;BME280_humidity;BME280_pressure;Samples;Min_cycle;Max_cycle;Signal;HPM_P1;HPM_P2
2022/05/11 00:01:13;;;;;;;;;0.00;0.00;;;;;21.34;49.00;101316.38;5051296;28;9116;-71
2022/05/11 00:03:40;;;;;;;;;0.00;0.00;;;;;21.34;48.91;101312.81;5052447;28;8898;-71
2022/05/11 00:06:05;;;;;;;;;0.00;0.00;;;;;21.34;48.64;101324.34;5051869;28;8794;-70
2022/05/11 00:08:31;;;;;;;;;1.00;0.00;;;;;21.34;49.05;101312.81;5051702;28;9210;-71
2022/05/11 00:10:56;;;;;;;;;0.00;0.00;;;;;21.33;48.86;101306.66;5051892;28;8812;-70
2022/05/11 00:13:22;;;;;;;;;0.00;0.00;;;;;21.32;48.95;101302.25;5051378;28;8797;-71
2022/05/11 00:15:47;;;;;;;;;0.00;0.00;;;;;21.31;49.01;101302.25;5050952;28;8798;-71
2022/05/11 00:18:12;;;;;;;;;1.00;1.00;;;;;21.32;49.08;101302.25;5051645;28;8809;-72
2022/05/11 00:20:37;;;;;;;;;0.00;0.00;;;;;21.32;49.32;101309.34;5051901;28;8801;-72
2022/05/11 00:23:03;;;;;;;;;0.00;0.00;;;;;21.32;49.03;101306.69;5050650;28;8805;-72
2022/05/11 00:25:29;;;;;;;;;0.00;0.00;;;;;21.32;48.86;101306.69;5051388;28;8813;-70
2022/05/11 00:27:56;;;;;;;;;0.00;0.00;;;;;21.32;48.66;101302.25;5051405;28;8796;-71
2022/05/11 00:30:24;;;;;;;;;0.00;0.00;;;;;21.31;48.80;101295.16;5050852;28;8944;-71
2022/05/11 00:32:54;;;;;;;;;0.33;0.00;;;;;21.31;49.18;101302.25;5050943;28;9021;-70
2022/05/11 00:35:20;;;;;;;;;0.00;0.00;;;;;21.29;48.97;101304.97;5051330;28;9133;-71
2022/05/11 00:37:45;;;;;;;;;0.00;0.00;;;;;21.31;48.88;101296.94;5050602;28;9076;-71
2022/05/11 00:40:12;;;;;;;;;2.00;0.00;;;;;21.30;49.00;101293.41;5051167;28;9056;-71
2022/05/11 00:42:37;;;;;;;;;0.00;0.00;;;;;21.29;49.08;101290.78;5051149;28;8837;-72
2022/05/11 00:45:04;;;;;;;;;0.00;0.00;;;;;21.29;49.11;101299.66;5050228;28;8912;-71
2022/05/11 00:47:40;;;;;;;;;1.33;0.00;;;;;21.29;48.81;101289.03;5051225;28;8778;-72
2022/05/11 00:50:29;;;;;;;;;0.00;0.00;;;;;21.29;49.12;101288.13;5050614;28;9021;-71
2022/05/11 00:52:58;;;;;;;;;0.00;0.00;;;;;21.30;49.01;101288.09;5051092;28;9155;-72
2022/05/11 00:55:32;;;;;;;;;0.00;0.00;;;;;21.29;49.23;101286.38;5051247;28;9012;-72
2022/05/11 00:58:04;;;;;;;;;0.00;0.00;;;;;21.28;48.88;101281.94;5050049;28;9021;-71
2022/05/11 01:00:30;;;;;;;;;1.67;0.67;;;;;21.27;49.00;101274.88;5050855;28;9108;-72
2022/05/11 01:03:03;;;;;;;;;0.00;0.00;;;;;21.27;49.24;101280.19;5050591;28;9315;-72
2022/05/11 01:05:32;;;;;;;;;0.00;0.00;;;;;21.28;49.22;101279.28;5050285;28;9663;-71
2022/05/11 01:07:58;;;;;;;;;0.00;0.00;;;;;21.26;49.06;101275.75;5050284;28;9033;-71
2022/05/11 01:10:27;;;;;;;;;0.00;0.00;;;;;21.25;49.33;101267.84;5050497;28;9029;-70
2022/05/11 01:12:57;;;;;;;;;0.00;0.00;;;;;21.25;49.24;101266.06;5049358;28;9788;-70
2022/05/11 01:15:24;;;;;;;;;0.00;0.00;;;;;21.26;49.09;101264.28;5050620;28;9220;-70
2022/05/11 01:17:49;;;;;;;;;0.00;0.00;;;;;21.25;49.69;101257.22;5050231;28;9442;-71
2022/05/11 01:20:22;;;;;;;;;0.00;0.00;;;;;21.24;49.01;101247.47;5050236;28;9148;-71
2022/05/11 01:22:55;;;;;;;;;0.00;0.00;;;;;21.25;49.19;101257.22;5050061;28;8797;-71
2022/05/11 01:25:21;;;;;;;;;1.00;1.00;;;;;21.23;49.84;101253.69;5049575;28;9016;-71
2022/05/11 01:27:47;;;;;;;;;0.00;0.00;;;;;21.24;49.23;101255.44;5049541;28;9006;-71
2022/05/11 01:30:19;;;;;;;;;0.00;0.00;;;;;21.24;49.37;101250.13;5050324;28;8769;-71
2022/05/11 01:32:48;;;;;;;;;0.00;0.00;;;;;21.23;49.59;101245.72;5049531;28;9653;-71
2022/05/11 01:35:30;;;;;;;;;0.00;0.00;;;;;21.22;48.97;101236.88;5050409;28;9063;-71
2022/05/11 01:38:23;;;;;;;;;0.00;0.00;;;;;21.23;49.35;101243.94;5049848;28;9148;-71
2022/05/11 01:40:48;;;;;;;;;0.00;0.00;;;;;21.23;49.47;101246.59;5049447;28;9185;-71
2022/05/11 01:43:26;;;;;;;;;0.00;0.00;;;;;21.23;49.64;101243.94;5050106;28;9147;-71
2022/05/11 01:45:52;;;;;;;;;0.00;0.00;;;;;21.22;49.49;101246.66;5050045;28;8945;-71
2022/05/11 01:48:17;;;;;;;;;0.00;0.00;;;;;21.23;49.62;101235.09;5049480;28;9760;-71
2022/05/11 01:50:43;;;;;;;;;0.00;0.00;;;;;21.23;49.36;101235.97;5050126;28;8778;-71
2022/05/11 01:53:09;;;;;;;;;1.00;1.00;;;;;21.22;49.46;101233.38;5050079;28;8786;-71
2022/05/11 01:55:35;;;;;;;;;0.00;0.00;;;;;21.22;49.23;101236.88;5049618;28;8808;-71
2022/05/11 01:58:02;;;;;;;;;0.33;0.33;;;;;21.20;49.77;101228.94;5049728;28;9060;-71
2022/05/11 02:00:30;;;;;;;;;0.00;0.00;;;;;21.20;49.52;101230.72;5050107;28;8802;-71
2022/05/11 02:02:55;;;;;;;;;0.00;0.00;;;;;21.21;49.03;101235.13;5048835;28;9018;-71
2022/05/11 02:08:04;;;;;;;;;0.00;0.00;;;;;21.20;49.51;101230.72;5048604;28;9486;-71
2022/05/11 02:10:33;;;;;;;;;1.00;0.00;;;;;21.20;49.60;101231.59;5049798;28;9221;-72
2022/05/11 02:12:58;;;;;;;;;0.00;0.00;;;;;21.19;49.87;101235.16;5049544;28;8786;-72
2022/05/11 02:15:25;;;;;;;;;0.00;0.00;;;;;21.19;49.36;101240.47;5048897;28;10034;-71
2022/05/11 02:17:50;;;;;;;;;0.00;0.00;;;;;21.19;49.71;101232.50;5049160;28;8790;-71
2022/05/11 02:20:18;;;;;;;;;0.00;0.00;;;;;21.18;49.39;101230.72;5049719;28;9138;-72
2022/05/11 02:22:44;;;;;;;;;0.00;0.00;;;;;21.17;49.48;101226.34;5048689;28;8986;-70
2022/05/11 02:25:12;;;;;;;;;0.00;0.00;;;;;21.18;50.01;101217.44;5049441;28;9187;-71
2022/05/11 02:27:37;;;;;;;;;0.00;0.00;;;;;21.17;49.45;101213.06;5049519;28;9139;-71
2022/05/11 02:30:04;;;;;;;;;0.00;0.00;;;;;21.15;49.59;101206.88;5048270;28;9193;-72
2022/05/11 02:32:30;;;;;;;;;0.00;0.00;;;;;21.17;49.33;101198.91;5049082;28;8783;-72
2022/05/11 02:35:13;;;;;;;;;0.00;0.00;;;;;21.15;49.53;101196.25;5049241;28;9127;-71
2022/05/11 02:37:39;;;;;;;;;0.00;0.00;;;;;21.16;49.59;101202.47;5048205;28;8790;-70
2022/05/11 02:40:05;;;;;;;;;0.00;0.00;;;;;21.15;49.46;101201.56;5048047;28;9040;-71
2022/05/11 02:42:30;;;;;;;;;0.00;0.00;;;;;21.16;49.54;101194.50;5048943;28;9045;-71
2022/05/11 02:44:56;;;;;;;;;0.00;0.00;;;;;21.16;49.62;101194.50;5048227;28;9787;-70
2022/05/11 02:47:21;;;;;;;;;0.00;0.00;;;;;21.15;49.73;101200.69;5049370;28;8778;-71
2022/05/11 02:49:46;;;;;;;;;0.67;0.67;;;;;21.16;49.47;101198.03;5048797;28;8897;-71
2022/05/11 02:52:14;;;;;;;;;0.00;0.00;;;;;21.16;49.36;101202.47;5048605;28;8775;-71
2022/05/11 02:54:39;;;;;;;;;0.00;0.00;;;;;21.15;49.85;101198.03;5049262;28;8877;-70
2022/05/11 02:57:05;;;;;;;;;0.00;0.00;;;;;21.15;49.34;101198.91;5048021;28;9041;-71
2022/05/11 02:59:30;;;;;;;;;1.00;0.00;;;;;21.15;49.19;101203.34;5049240;28;8954;-70
2022/05/11 03:01:58;;;;;;;;;0.00;0.00;;;;;21.13;49.28;101199.84;5048851;28;8778;-71
2022/05/11 03:04:25;;;;;;;;;0.00;0.00;;;;;21.15;49.59;101192.72;5048614;28;8826;-71
2022/05/11 03:06:50;;;;;;;;;0.00;0.00;;;;;21.12;49.61;101188.34;5048669;28;9051;-71
2022/05/11 03:09:17;;;;;;;;;0.00;0.00;;;;;21.12;49.68;101193.66;5048881;28;9205;-71
2022/05/11 03:11:44;;;;;;;;;1.00;0.00;;;;;21.12;49.69;101196.31;5048396;28;8797;-71
2022/05/11 03:14:10;;;;;;;;;0.00;0.00;;;;;21.12;49.68;101187.47;5049375;28;9120;-71
2022/05/11 03:16:37;;;;;;;;;0.00;0.00;;;;;21.10;49.72;101187.47;5049075;28;9045;-71
2022/05/11 03:19:03;;;;;;;;;0.00;0.00;;;;;21.13;49.60;101187.47;5047976;28;11487;-71
2022/05/11 03:21:28;;;;;;;;;0.00;0.00;;;;;21.12;49.52;101184.81;5049266;28;9307;-71
2022/05/11 03:23:54;;;;;;;;;0.00;0.00;;;;;21.11;49.77;101181.28;5048896;28;8837;-71
2022/05/11 03:26:20;;;;;;;;;0.67;0.00;;;;;21.10;49.71;101182.19;5048150;28;8774;-72
2022/05/11 03:28:45;;;;;;;;;0.00;0.00;;;;;21.10;49.73;101173.31;5049147;28;8933;-71
2022/05/11 03:31:11;;;;;;;;;0.00;0.00;;;;;21.10;49.69;101182.19;5049291;28;10056;-71
2022/05/11 03:36:20;;;;;;;;;0.00;0.00;;;;;21.10;49.81;101174.22;5049014;28;8750;-71
2022/05/11 03:38:46;;;;;;;;;0.00;0.00;;;;;21.11;49.78;101172.44;5048735;28;9243;-72
2022/05/11 03:41:11;;;;;;;;;0.00;0.00;;;;;21.11;49.45;101167.13;5048392;28;8773;-72
2022/05/11 03:43:36;;;;;;;;;1.00;0.00;;;;;21.10;49.77;101168.03;5048882;28;8852;-72
2022/05/11 03:46:01;;;;;;;;;0.00;0.00;;;;;21.10;49.50;101168.91;5048631;28;8794;-71
2022/05/11 03:48:27;;;;;;;;;0.00;0.00;;;;;21.09;49.53;101167.13;5049400;28;8802;-71
2022/05/11 03:50:53;;;;;;;;;0.00;0.00;;;;;21.09;49.67;101167.13;5051884;28;8894;-71
2022/05/11 03:53:18;;;;;;;;;0.00;0.00;;;;;21.08;49.65;101167.16;5051326;28;8786;-71
2022/05/11 03:55:47;;;;;;;;;0.00;0.00;;;;;21.10;49.62;101162.72;5051766;28;8809;-71
2022/05/11 03:58:14;;;;;;;;;0.00;0.00;;;;;21.09;49.39;101147.66;5052298;28;8790;-71
2022/05/11 04:00:40;;;;;;;;;0.00;0.00;;;;;21.09;49.47;101156.53;5051021;28;9147;-72
2022/05/11 04:03:06;;;;;;;;;0.00;0.00;;;;;21.08;49.56;101154.75;5051366;28;9035;-72
2022/05/11 04:05:32;;;;;;;;;0.00;0.00;;;;;21.07;49.39;101147.69;5051887;28;9062;-72
2022/05/11 04:07:57;;;;;;;;;0.00;0.00;;;;;21.08;49.58;101146.78;5050644;28;8813;-72
2022/05/11 04:10:23;;;;;;;;;0.00;0.00;;;;;21.08;49.47;101144.13;5052082;28;8789;-70
2022/05/11 04:12:48;;;;;;;;;0.00;0.00;;;;;21.08;49.46;101145.91;5051378;28;8790;-71
2022/05/11 04:15:14;;;;;;;;;0.33;0.00;;;;;21.08;49.38;101148.56;5050962;28;8913;-71
2022/05/11 04:17:40;;;;;;;;;0.00;0.00;;;;;21.07;49.47;101137.06;5051808;28;8786;-70
2022/05/11 04:20:08;;;;;;;;;0.00;0.00;;;;;21.08;49.57;101151.22;5051234;28;9288;-71
2022/05/11 04:22:33;;;;;;;;;0.00;0.00;;;;;21.07;49.24;101142.38;5050510;28;9151;-71
2022/05/11 04:24:59;;;;;;;;;0.00;0.00;;;;;21.07;49.35;101146.84;5051177;28;9320;-71
2022/05/11 04:27:24;;;;;;;;;0.00;0.00;;;;;21.06;49.66;101145.97;5051396;28;8789;-71
2022/05/11 04:29:49;;;;;;;;;0.00;0.00;;;;;21.07;49.68;101153.00;5050636;28;8797;-71
2022/05/11 04:32:15;;;;;;;;;0.00;0.00;;;;;21.07;49.47;101150.34;5051238;28;8829;-71
2022/05/11 04:34:41;;;;;;;;;0.00;0.00;;;;;21.07;49.28;101149.50;5051628;28;8806;-71
2022/05/11 04:37:07;;;;;;;;;0.00;0.00;;;;;21.07;49.33;101141.53;5050737;28;8804;-71
2022/05/11 04:39:33;;;;;;;;;0.00;0.00;;;;;21.06;49.65;101145.06;5051632;28;9239;-72
2022/05/11 04:41:59;;;;;;;;;0.67;0.00;;;;;21.06;49.85;101150.38;5051232;28;9266;-71
2022/05/11 04:44:28;;;;;;;;;0.00;0.00;;;;;21.06;49.67;101150.38;5050570;28;11023;-71
2022/05/11 04:46:54;;;;;;;;;0.00;0.00;;;;;21.06;49.35;101150.38;5051177;28;8778;-71
2022/05/11 04:49:19;;;;;;;;;0.00;0.00;;;;;21.07;49.18;101152.16;5051206;28;9197;-71
2022/05/11 04:52:02;;;;;;;;;0.00;0.00;;;;;21.07;49.50;101141.53;5050014;28;8816;-71
2022/05/11 04:54:28;;;;;;;;;0.00;0.00;;;;;21.06;49.37;101135.34;5050841;28;8806;-71
2022/05/11 04:56:54;;;;;;;;;0.00;0.00;;;;;21.07;49.33;101141.53;5050177;28;9208;-71
2022/05/11 04:59:19;;;;;;;;;0.00;0.00;;;;;21.06;49.12;101145.06;5050882;28;8789;-71
2022/05/11 05:01:47;;;;;;;;;0.00;0.00;;;;;21.07;49.27;101149.50;5050401;28;9562;-71
2022/05/11 05:04:12;;;;;;;;;0.00;0.00;;;;;21.06;49.49;101151.25;5049943;28;8828;-72
2022/05/11 05:06:38;;;;;;;;;0.00;0.00;;;;;21.06;49.38;101151.25;5050958;28;9248;-71
2022/05/11 05:09:05;;;;;;;;;0.00;0.00;;;;;21.07;49.45;101149.50;5050509;28;8782;-71
2022/05/11 05:11:31;;;;;;;;;0.75;0.00;;;;;21.11;52.97;101154.72;5050124;28;8824;-71
2022/05/11 05:13:57;;;;;;;;;0.00;0.00;;;;;21.18;53.23;101155.53;5050733;28;9361;-71
2022/05/11 05:16:23;;;;;;;;;1.67;1.00;;;;;21.28;53.83;101159.78;5050729;28;9306;-72
2022/05/11 05:18:48;;;;;;;;;0.00;0.00;;;;;21.40;53.74;101156.03;5049237;28;9686;-69
2022/05/11 05:21:13;;;;;;;;;0.67;0.00;;;;;21.53;60.31;101160.19;5050442;28;8824;-70
2022/05/11 05:23:39;;;;;;;;;1.67;1.00;;;;;21.56;56.50;101160.13;5050544;28;8976;-71
2022/05/11 05:26:04;;;;;;;;;1.00;0.00;;;;;21.56;57.50;101161.00;5049499;28;8769;-71
2022/05/11 05:31:17;;;;;;;;;1.67;0.00;;;;;21.57;57.22;101165.44;5050388;28;8777;-71
2022/05/11 05:33:43;;;;;;;;;2.00;0.67;;;;;21.58;58.67;101167.19;5049783;28;9338;-71
2022/05/11 05:36:09;;;;;;;;;2.33;1.00;;;;;21.59;58.05;101165.41;5050337;28;9381;-71
2022/05/11 05:38:38;;;;;;;;;1.00;1.00;;;;;21.56;59.31;101162.78;5050353;28;9333;-69
2022/05/11 05:41:05;;;;;;;;;1.67;1.67;;;;;21.53;59.55;101155.75;5048948;28;9185;-70
2022/05/11 05:43:30;;;;;;;;;0.00;0.00;;;;;21.53;59.11;101163.72;5049932;28;9140;-70
2022/05/11 05:45:55;;;;;;;;;4.00;0.33;;;;;21.53;59.63;101165.50;5048959;28;9280;-69
2022/05/11 05:48:22;;;;;;;;;0.67;0.00;;;;;21.53;59.37;101165.50;5050074;28;8835;-71
2022/05/11 05:50:48;;;;;;;;;0.67;0.67;;;;;21.52;58.73;101158.47;5049754;28;8782;-71
2022/05/11 05:53:14;;;;;;;;;2.00;1.50;;;;;21.51;58.64;101162.91;5049190;28;9397;-71
2022/05/11 05:55:41;;;;;;;;;0.00;0.00;;;;;21.51;58.89;101164.69;5049844;28;8821;-70
2022/05/11 05:58:06;;;;;;;;;0.00;0.00;;;;;21.47;58.82;101169.16;5049544;28;9329;-70
2022/05/11 06:00:32;;;;;;;;;1.33;1.00;;;;;21.48;58.67;101168.25;5048949;28;9200;-71
2022/05/11 06:02:57;;;;;;;;;3.00;1.67;;;;;21.45;58.18;101160.34;5049513;28;8933;-71
2022/05/11 06:05:23;;;;;;;;;1.67;0.00;;;;;21.47;58.04;101158.53;5049866;28;8777;-71
2022/05/11 06:07:51;;;;;;;;;1.00;0.67;;;;;21.47;57.79;101162.97;5048718;28;8754;-71
2022/05/11 06:10:16;;;;;;;;;2.00;0.00;;;;;21.45;57.58;101162.09;5049370;28;8863;-71
2022/05/11 06:12:41;;;;;;;;;2.33;1.00;;;;;21.44;57.29;101155.94;5049696;28;9139;-71
2022/05/11 06:15:07;;;;;;;;;2.00;1.33;;;;;21.46;57.09;101158.56;5048183;28;8842;-71
2022/05/11 06:17:35;;;;;;;;;2.67;2.00;;;;;21.45;57.01;101160.34;5050090;28;8802;-71
2022/05/11 06:20:00;;;;;;;;;2.00;0.00;;;;;21.45;56.80;101163.00;5049771;28;9569;-71
2022/05/11 06:22:26;;;;;;;;;0.67;0.00;;;;;21.45;56.99;101164.75;5049500;28;9208;-71
2022/05/11 06:24:51;;;;;;;;;1.00;1.00;;;;;21.45;56.44;101172.75;5049866;28;8789;-71
2022/05/11 06:27:20;;;;;;;;;2.00;2.00;;;;;21.44;56.58;101158.59;5050147;28;8797;-71
2022/05/11 06:29:53;;;;;;;;;0.67;0.67;;;;;21.43;56.04;101159.50;5048988;28;8802;-72
2022/05/11 06:32:19;;;;;;;;;1.00;1.00;;;;;21.44;56.38;101150.63;5050079;28;9189;-71
2022/05/11 06:34:45;;;;;;;;;2.00;0.00;;;;;21.44;55.98;101158.59;5049783;28;9352;-72
2022/05/11 06:37:11;;;;;;;;;1.67;0.00;;;;;21.45;55.88;101160.34;5048926;28;8806;-71
2022/05/11 06:39:36;;;;;;;;;0.00;0.00;;;;;21.47;55.54;101165.63;5049588;28;9123;-71
2022/05/11 06:42:06;;;;;;;;;0.00;0.00;;;;;21.47;55.43;101155.00;5048477;28;8790;-71
2022/05/11 06:44:31;;;;;;;;;1.00;1.00;;;;;21.46;55.33;101163.88;5049587;28;8967;-71
2022/05/11 06:46:57;;;;;;;;;2.00;1.00;;;;;21.49;55.15;101155.84;5049099;28;9297;-70
2022/05/11 06:49:22;;;;;;;;;3.33;1.33;;;;;21.45;55.15;101163.00;5048681;28;8793;-71
2022/05/11 06:51:48;;;;;;;;;2.00;0.00;;;;;21.48;55.13;101164.75;5048893;28;11601;-71
2022/05/11 06:59:41;;;;;;;;;1.00;1.00;;;;;21.48;54.53;101159.44;5048856;28;9181;-71
2022/05/11 07:02:06;;;;;;;;;0.33;0.33;;;;;21.49;54.49;101159.38;5048293;28;9430;-71
2022/05/11 07:04:37;;;;;;;;;1.00;1.00;;;;;21.48;54.47;101156.78;5048070;28;8854;-72
2022/05/11 07:07:04;;;;;;;;;1.67;1.00;;;;;21.48;54.40;101159.44;5048410;28;8781;-71
2022/05/11 07:09:31;;;;;;;;;0.00;0.00;;;;;21.49;54.05;101151.41;5049203;28;9473;-71
2022/05/11 07:14:42;;;;;;;;;1.00;1.00;;;;;21.49;53.84;101143.44;5049231;28;9038;-72
2022/05/11 07:17:07;;;;;;;;;0.00;0.00;;;;;21.48;53.82;101141.69;5048789;28;9254;-72
2022/05/11 07:19:33;;;;;;;;;1.00;1.00;;;;;21.48;53.83;101141.69;5048363;28;9597;-71
2022/05/11 07:21:59;;;;;;;;;4.00;1.00;;;;;21.52;53.51;101142.53;5049811;28;8806;-71
2022/05/11 07:24:25;;;;;;;;;2.00;1.00;;;;;21.51;53.46;101139.00;5052211;28;9294;-71
2022/05/11 07:26:51;;;;;;;;;0.00;0.00;;;;;21.53;53.59;101138.94;5052723;28;8802;-71
2022/05/11 07:29:17;;;;;;;;;6.67;2.00;;;;;21.53;53.46;101141.59;5052938;28;8808;-71
2022/05/11 07:31:45;;;;;;;;;2.00;1.00;;;;;21.55;53.45;101142.47;5052316;28;10016;-71
2022/05/11 07:34:11;;;;;;;;;0.00;0.00;;;;;21.53;52.92;101144.25;5052465;28;8806;-71
2022/05/11 07:36:36;;;;;;;;;1.67;1.67;;;;;21.51;53.05;101133.69;5052203;28;9176;-71
2022/05/11 07:39:02;;;;;;;;;1.33;1.33;;;;;21.51;52.98;101144.31;5051631;28;8790;-71
2022/05/11 07:41:27;;;;;;;;;0.00;0.00;;;;;21.50;52.77;101142.53;5052602;28;8778;-71
2022/05/11 07:43:52;;;;;;;;;0.00;0.00;;;;;21.50;52.87;101142.53;5052201;28;8837;-70
2022/05/11 07:46:17;;;;;;;;;2.00;0.67;;;;;21.50;52.51;101139.88;5051695;28;8798;-71
2022/05/11 07:48:43;;;;;;;;;0.00;0.00;;;;;21.52;52.10;101139.88;5052133;28;8805;-71
2022/05/11 07:51:08;;;;;;;;;0.00;0.00;;;;;21.52;52.42;101147.84;5052459;28;8782;-70
2022/05/11 07:53:37;;;;;;;;;0.00;0.00;;;;;21.51;52.28;101148.75;5051543;28;8786;-71
2022/05/11 08:01:30;;;;;;;;;0.00;0.00;;;;;21.52;52.01;101150.50;5051370;28;9016;-70
2022/05/11 08:03:55;;;;;;;;;0.00;0.00;;;;;21.50;51.57;101147.84;5052037;28;9207;-71
2022/05/11 08:06:20;;;;;;;;;1.67;0.67;;;;;21.52;51.87;101151.34;5051791;28;9649;-71
2022/05/11 08:08:46;;;;;;;;;0.00;0.00;;;;;21.51;51.58;101154.94;5051094;28;8782;-71
2022/05/11 08:11:12;;;;;;;;;1.67;1.00;;;;;21.52;51.51;101155.81;5051973;28;8932;-70
2022/05/11 08:13:37;;;;;;;;;1.00;0.00;;;;;21.49;51.29;101150.53;5051006;28;8825;-71
2022/05/11 08:16:02;;;;;;;;;0.33;0.00;;;;;21.54;51.22;101153.97;5051411;28;9388;-70
2022/05/11 08:18:28;;;;;;;;;0.00;0.00;;;;;21.53;51.10;101153.09;5051676;28;8992;-70
2022/05/11 08:20:56;;;;;;;;;0.00;0.00;;;;;21.54;50.82;101153.97;5050812;28;8870;-70
2022/05/11 08:23:22;;;;;;;;;1.00;1.00;;;;;21.55;51.08;101147.78;5051791;28;8813;-70
2022/05/11 08:25:49;;;;;;;;;1.00;0.00;;;;;21.55;51.12;101158.41;5051477;28;9207;-70
2022/05/11 08:28:18;;;;;;;;;0.00;0.00;;;;;21.54;50.79;101167.28;5050834;28;8855;-70
2022/05/11 08:33:31;;;;;;;;;0.25;0.00;;;;;21.54;50.86;101160.19;5051794;28;8953;-70
2022/05/11 08:36:00;;;;;;;;;1.00;0.00;;;;;21.56;50.72;101161.00;5051380;28;8810;-71
2022/05/11 08:38:29;;;;;;;;;0.00;0.00;;;;;21.57;50.57;101161.91;5052186;28;9690;-70
2022/05/11 08:41:21;;;;;;;;;1.00;1.00;;;;;21.59;50.61;101157.44;5051837;28;9097;-70
2022/05/11 08:43:49;;;;;;;;;0.00;0.00;;;;;21.59;50.38;101154.78;5048195;28;9202;-70
2022/05/11 08:46:34;;;;;;;;;0.00;0.00;;;;;21.60;50.44;101153.84;5052169;28;9283;-70
2022/05/11 08:49:00;;;;;;;;;0.00;0.00;;;;;21.58;50.36;101161.00;5051081;28;9181;-70
2022/05/11 08:51:37;;;;;;;;;0.00;0.00;;;;;21.62;50.41;101160.03;5051772;28;9203;-70
2022/05/11 08:54:21;;;;;;;;;0.67;0.67;;;;;21.62;50.50;101160.03;5051783;28;9254;-70
2022/05/11 08:56:49;;;;;;;;;0.00;0.00;;;;;21.62;50.25;101158.25;5051161;28;9247;-70
2022/05/11 08:59:20;;;;;;;;;1.00;0.67;;;;;21.62;50.19;101152.94;5051751;28;10108;-70
2022/05/11 09:01:54;;;;;;;;;1.00;1.00;;;;;21.63;50.56;101159.16;5051235;28;9376;-70
2022/05/11 09:04:25;;;;;;;;;1.00;1.00;;;;;21.64;50.07;101155.56;5051195;28;9431;-71
2022/05/11 09:06:51;;;;;;;;;0.33;0.33;;;;;21.64;50.11;101153.78;5051341;28;9239;-71
2022/05/11 09:09:17;;;;;;;;;0.00;0.00;;;;;21.64;50.01;101152.91;5051757;28;9200;-71
2022/05/11 09:11:51;;;;;;;;;0.33;0.00;;;;;21.65;50.07;101154.66;5050970;28;9249;-71
2022/05/11 09:14:31;;;;;;;;;0.00;0.00;;;;;21.68;50.05;101154.59;5051557;28;9391;-71
2022/05/11 09:16:57;;;;;;;;;0.00;0.00;;;;;21.66;49.83;101167.94;5050552;28;9233;-71
2022/05/11 09:19:25;;;;;;;;;2.00;0.00;;;;;21.65;50.07;101163.50;5051189;28;9299;-71
2022/05/11 09:22:04;;;;;;;;;0.00;0.00;;;;;21.65;49.88;101168.81;5051168;28;8825;-71
2022/05/11 09:24:34;;;;;;;;;1.67;0.67;;;;;21.67;49.86;101166.13;5050747;28;9219;-71
2022/05/11 09:27:12;;;;;;;;;0.33;0.33;;;;;21.66;50.10;101165.28;5051226;28;9340;-71
2022/05/11 09:29:44;;;;;;;;;0.33;0.00;;;;;21.67;50.03;101158.16;5051568;28;9277;-72
2022/05/11 09:32:33;;;;;;;;;0.67;0.67;;;;;21.69;49.92;101173.19;5050607;28;9176;-70
2022/05/11 09:35:24;;;;;;;;;0.67;0.67;;;;;21.71;49.80;101174.94;5050638;28;9181;-71
2022/05/11 09:37:57;;;;;;;;;0.00;0.00;;;;;21.71;49.80;101173.13;5050712;28;9255;-70
2022/05/11 09:40:24;;;;;;;;;1.00;1.00;;;;;21.72;49.63;101174.03;5050882;28;9262;-72
2022/05/11 09:42:54;;;;;;;;;0.00;0.00;;;;;21.76;49.45;101173.06;5050297;28;9429;-71
2022/05/11 09:45:41;;;;;;;;;1.33;0.33;;;;;21.76;49.51;101175.72;5048995;28;9189;-72
2022/05/11 09:48:31;;;;;;;;;0.00;0.00;;;;;21.77;49.49;101173.03;5050440;28;9323;-72
2022/05/11 09:51:23;;;;;;;;;1.00;1.00;;;;;21.81;49.49;101173.84;5050101;28;9181;-72
2022/05/11 09:53:53;;;;;;;;;1.00;1.00;;;;;21.83;49.52;101172.91;5049015;28;10083;-70
2022/05/11 09:56:23;;;;;;;;;1.00;0.00;;;;;21.81;49.52;101164.09;5050576;28;9450;-72
2022/05/11 09:58:49;;;;;;;;;0.67;0.00;;;;;21.84;49.56;101171.13;5049705;28;9280;-71
2022/05/11 10:01:22;;;;;;;;;1.00;1.00;;;;;21.84;49.32;101164.03;5049472;28;9334;-72
2022/05/11 10:03:59;;;;;;;;;0.00;0.00;;;;;21.87;49.53;101165.75;5049473;28;9403;-71
2022/05/11 10:06:29;;;;;;;;;0.00;0.00;;;;;21.85;49.38;101167.56;5048988;28;9287;-72
2022/05/11 10:08:56;;;;;;;;;0.67;0.67;;;;;21.85;49.52;101171.13;5049816;28;9278;-71
2022/05/11 10:11:25;;;;;;;;;0.00;0.00;;;;;21.87;49.47;101168.41;5049886;28;9248;-71
2022/05/11 10:13:55;;;;;;;;;0.67;0.67;;;;;21.88;49.34;101170.16;5048680;28;9289;-70
2022/05/11 10:22:11;;;;;;;;;0.00;0.00;;;;;21.90;49.42;101165.69;5048797;28;9453;-70
2022/05/11 10:24:44;;;;;;;;;1.00;1.00;;;;;21.90;49.36;101166.56;5049832;28;10046;-71
2022/05/11 10:27:31;;;;;;;;;1.00;1.00;;;;;21.89;49.14;101162.19;5048705;28;9312;-71
2022/05/11 10:30:23;;;;;;;;;0.33;0.00;;;;;21.91;49.06;101159.50;5049608;28;9214;-71
2022/05/11 10:33:16;;;;;;;;;2.00;1.00;;;;;21.91;48.96;101155.06;5049349;28;9353;-72
2022/05/11 10:35:56;;;;;;;;;0.33;0.00;;;;;21.94;48.96;101162.09;5049178;28;9258;-70
2022/05/11 10:38:55;;;;;;;;;0.67;0.00;;;;;21.92;48.89;101151.50;5049762;28;9255;-71
2022/05/11 10:41:47;;;;;;;;;2.00;0.67;;;;;21.95;48.90;101151.44;5048479;28;9271;-70
2022/05/11 10:44:48;;;;;;;;;0.00;0.00;;;;;21.94;48.63;101157.66;5049517;28;9296;-70
2022/05/11 10:47:16;;;;;;;;;0.00;0.00;;;;;21.95;48.53;101156.75;5049290;28;9192;-71
2022/05/11 10:50:01;;;;;;;;;1.00;1.00;;;;;21.95;48.67;101155.88;5048598;28;9222;-70
2022/05/11 10:52:47;;;;;;;;;0.00;0.00;;;;;21.96;48.57;101153.19;5048973;28;9225;-70
2022/05/11 10:55:15;;;;;;;;;0.00;0.00;;;;;21.97;48.21;101151.41;5048802;28;9124;-70
2022/05/11 10:57:49;;;;;;;;;0.00;0.00;;;;;21.97;48.21;101140.78;5051069;28;9317;-70
2022/05/11 11:00:19;;;;;;;;;0.00;0.00;;;;;21.98;48.20;101148.72;5053141;28;9201;-70
2022/05/11 11:02:52;;;;;;;;;0.00;0.00;;;;;22.00;48.03;101148.69;5051925;28;9220;-70
2022/05/11 11:05:41;;;;;;;;;0.00;0.00;;;;;21.99;48.11;101153.13;5052966;28;9086;-70
2022/05/11 11:08:35;;;;;;;;;0.00;0.00;;;;;22.00;48.03;101162.88;5052948;28;9173;-70
2022/05/11 11:11:13;;;;;;;;;0.00;0.00;;;;;22.02;47.71;101161.03;5052095;28;9185;-70
2022/05/11 11:13:51;;;;;;;;;0.33;0.33;;;;;22.03;47.87;101159.25;5053073;28;9243;-70
2022/05/11 11:16:16;;;;;;;;;0.00;0.00;;;;;22.02;47.81;101153.06;5053257;28;9244;-70
2022/05/11 11:18:46;;;;;;;;;0.00;0.00;;;;;22.01;48.05;101153.97;5052333;28;9026;-70
2022/05/11 11:21:13;;;;;;;;;0.00;0.00;;;;;22.04;48.13;101153.94;5052826;28;8774;-70
2022/05/11 11:23:42;;;;;;;;;0.00;0.00;;;;;22.04;47.99;101150.38;5052244;28;9173;-70
2022/05/11 11:26:13;;;;;;;;;1.00;1.00;;;;;22.03;48.14;101138.00;5052561;28;9099;-70
2022/05/11 11:28:41;;;;;;;;;0.00;0.00;;;;;22.06;47.80;101149.44;5053151;28;9128;-70
2022/05/11 11:31:09;;;;;;;;;1.00;1.00;;;;;22.08;47.98;101144.09;5052479;28;9142;-70
2022/05/11 11:34:00;;;;;;;;;0.00;0.00;;;;;22.08;47.83;101146.75;5053287;28;9094;-70
2022/05/11 11:36:28;;;;;;;;;0.00;0.00;;;;;22.09;47.72;101143.16;5053213;28;9143;-70
2022/05/11 11:39:00;;;;;;;;;2.33;0.00;;;;;22.11;47.86;101131.59;5052573;28;9169;-70
2022/05/11 11:41:41;;;;;;;;;1.00;1.00;;;;;22.12;47.73;101140.44;5053449;28;9897;-70
2022/05/11 11:44:30;;;;;;;;;1.00;1.00;;;;;22.13;47.77;101137.75;5052787;28;9157;-70
2022/05/11 11:46:57;;;;;;;;;0.00;0.00;;;;;22.16;47.43;101129.72;5053032;28;9049;-70
2022/05/11 11:49:26;;;;;;;;;0.00;0.00;;;;;22.17;47.55;101128.81;5053005;28;9126;-70
2022/05/11 11:51:58;;;;;;;;;0.00;0.00;;;;;22.14;47.71;101125.34;5052303;28;9967;-70
2022/05/11 11:54:27;;;;;;;;;1.00;0.00;;;;;22.17;47.49;101115.50;5052940;28;9024;-71
2022/05/11 11:56:54;;;;;;;;;0.00;0.00;;;;;22.20;47.59;101119.88;5052472;28;9048;-70
2022/05/11 11:59:23;;;;;;;;;0.00;0.00;;;;;22.18;47.38;101129.69;5052386;28;9012;-70
2022/05/11 12:01:49;;;;;;;;;0.00;0.00;;;;;22.21;46.98;101118.09;5052611;28;9108;-70
2022/05/11 12:04:27;;;;;;;;;0.00;0.00;;;;;22.23;47.23;101122.50;5052854;28;9065;-70
2022/05/11 12:15:44;;;;;;;;;0.00;0.00;;;;;22.26;46.86;101111.78;5052157;28;8967;-71
2022/05/11 12:18:25;;;;;;;;;0.33;0.33;;;;;22.28;46.70;101111.72;5035394;28;9151;-70
2022/05/11 12:20:52;;;;;;;;;0.00;0.00;;;;;22.28;46.85;101109.94;5050734;28;9020;-71
2022/05/11 12:23:20;;;;;;;;;0.00;0.00;;;;;22.30;47.00;101100.16;5051637;28;10038;-70